sensor_id;sensor_type;location;lat;lon;timestamp;P1;durP1;ratioP1;P2;durP2;ratioP2
18716;SDS011;9487;50.892;6.906;2023-08-01T00:01:31;1.80;;;0.97;;
18716;SDS011;9487;50.892;6.906;2023-08-01T00:03:58;1.33;;;0.90;;
18716;SDS011;9487;50.892;6.906;2023-08-01T00:06:25;1.50;;;1.10;;
18716;SDS011;9487;50.892;6.906;2023-08-01T00:08:53;1.00;;;0.90;;
18716;SDS011;9487;50.892;6.906;2023-08-01T00:11:20;2.37;;;1.20;;
18716;SDS011;9487;50.892;6.906;2023-08-01T00:13:47;2.83;;;1.30;;
18716;SDS011;9487;50.892;6.906;2023-08-01T00:16:13;2.17;;;1.53;;
18716;SDS011;9487;50.892;6.906;2023-08-01T00:18:40;3.33;;;1.60;;
18716;SDS011;9487;50.892;6.906;2023-08-01T00:21:08;2.10;;;1.30;;
18716;SDS011;9487;50.892;6.906;2023-08-01T00:23:36;2.30;;;1.40;;
18716;SDS011;9487;50.892;6.906;2023-08-01T00:26:04;1.80;;;1.50;;
18716;SDS011;9487;50.892;6.906;2023-08-01T00:28:31;2.73;;;1.10;;
18716;SDS011;9487;50.892;6.906;2023-08-01T00:31:02;1.83;;;1.10;;
18716;SDS011;9487;50.892;6.906;2023-08-01T00:33:29;1.97;;;1.40;;
18716;SDS011;9487;50.892;6.906;2023-08-01T00:35:56;2.17;;;1.47;;
18716;SDS011;9487;50.892;6.906;2023-08-01T00:38:23;2.43;;;1.30;;
18716;SDS011;9487;50.892;6.906;2023-08-01T00:40:50;2.43;;;1.03;;
18716;SDS011;9487;50.892;6.906;2023-08-01T00:43:18;1.60;;;0.93;;
18716;SDS011;9487;50.892;6.906;2023-08-01T00:45:45;1.20;;;1.10;;
18716;SDS011;9487;50.892;6.906;2023-08-01T00:48:13;1.90;;;0.80;;
18716;SDS011;9487;50.892;6.906;2023-08-01T00:50:40;1.23;;;0.80;;
18716;SDS011;9487;50.892;6.906;2023-08-01T00:53:07;0.93;;;0.70;;
18716;SDS011;9487;50.892;6.906;2023-08-01T00:55:34;1.53;;;0.70;;
18716;SDS011;9487;50.892;6.906;2023-08-01T00:58:01;1.80;;;0.50;;
18716;SDS011;9487;50.892;6.906;2023-08-01T01:00:30;1.13;;;0.50;;
18716;SDS011;9487;50.892;6.906;2023-08-01T01:02:57;1.33;;;0.60;;
18716;SDS011;9487;50.892;6.906;2023-08-01T01:05:24;1.60;;;0.70;;
18716;SDS011;9487;50.892;6.906;2023-08-01T01:07:53;0.50;;;0.50;;
18716;SDS011;9487;50.892;6.906;2023-08-01T01:10:22;1.13;;;0.50;;
18716;SDS011;9487;50.892;6.906;2023-08-01T01:12:49;0.60;;;0.40;;
18716;SDS011;9487;50.892;6.906;2023-08-01T01:15:16;0.70;;;0.40;;
18716;SDS011;9487;50.892;6.906;2023-08-01T01:17:45;0.70;;;0.50;;
18716;SDS011;9487;50.892;6.906;2023-08-01T01:20:11;2.40;;;0.50;;
18716;SDS011;9487;50.892;6.906;2023-08-01T01:22:40;1.43;;;0.40;;
18716;SDS011;9487;50.892;6.906;2023-08-01T01:25:08;0.50;;;0.50;;
18716;SDS011;9487;50.892;6.906;2023-08-01T01:27:37;0.60;;;0.60;;
18716;SDS011;9487;50.892;6.906;2023-08-01T01:30:05;0.70;;;0.60;;
18716;SDS011;9487;50.892;6.906;2023-08-01T01:32:35;1.07;;;0.50;;
18716;SDS011;9487;50.892;6.906;2023-08-01T01:35:03;2.10;;;0.60;;
18716;SDS011;9487;50.892;6.906;2023-08-01T01:37:30;0.83;;;0.40;;
18716;SDS011;9487;50.892;6.906;2023-08-01T01:39:59;1.13;;;0.47;;
18716;SDS011;9487;50.892;6.906;2023-08-01T01:42:25;1.43;;;0.63;;
18716;SDS011;9487;50.892;6.906;2023-08-01T01:44:52;0.70;;;0.40;;
18716;SDS011;9487;50.892;6.906;2023-08-01T01:47:19;0.80;;;0.37;;
18716;SDS011;9487;50.892;6.906;2023-08-01T01:49:46;0.57;;;0.40;;
18716;SDS011;9487;50.892;6.906;2023-08-01T01:52:13;1.60;;;0.30;;
18716;SDS011;9487;50.892;6.906;2023-08-01T01:54:40;0.97;;;0.50;;
18716;SDS011;9487;50.892;6.906;2023-08-01T01:57:09;0.50;;;0.50;;
18716;SDS011;9487;50.892;6.906;2023-08-01T01:59:35;0.73;;;0.50;;
18716;SDS011;9487;50.892;6.906;2023-08-01T02:02:02;0.40;;;0.30;;
18716;SDS011;9487;50.892;6.906;2023-08-01T02:04:29;0.50;;;0.30;;
18716;SDS011;9487;50.892;6.906;2023-08-01T02:06:56;0.60;;;0.57;;
18716;SDS011;9487;50.892;6.906;2023-08-01T02:09:23;1.37;;;0.40;;
18716;SDS011;9487;50.892;6.906;2023-08-01T02:11:50;0.80;;;0.40;;
18716;SDS011;9487;50.892;6.906;2023-08-01T02:14:19;0.60;;;0.60;;
18716;SDS011;9487;50.892;6.906;2023-08-01T02:16:46;0.97;;;0.70;;
18716;SDS011;9487;50.892;6.906;2023-08-01T02:19:12;1.37;;;0.57;;
18716;SDS011;9487;50.892;6.906;2023-08-01T02:21:39;0.83;;;0.57;;
18716;SDS011;9487;50.892;6.906;2023-08-01T02:24:06;1.10;;;0.63;;
18716;SDS011;9487;50.892;6.906;2023-08-01T02:26:33;1.17;;;0.60;;
18716;SDS011;9487;50.892;6.906;2023-08-01T02:29:01;0.80;;;0.67;;
18716;SDS011;9487;50.892;6.906;2023-08-01T02:31:30;1.00;;;0.70;;
18716;SDS011;9487;50.892;6.906;2023-08-01T02:33:57;2.53;;;0.90;;
18716;SDS011;9487;50.892;6.906;2023-08-01T02:36:24;1.10;;;0.90;;
18716;SDS011;9487;50.892;6.906;2023-08-01T02:38:51;0.83;;;0.70;;
18716;SDS011;9487;50.892;6.906;2023-08-01T02:41:17;0.80;;;0.80;;
18716;SDS011;9487;50.892;6.906;2023-08-01T02:43:44;2.00;;;0.90;;
18716;SDS011;9487;50.892;6.906;2023-08-01T02:46:12;1.73;;;0.90;;
18716;SDS011;9487;50.892;6.906;2023-08-01T02:48:40;1.37;;;1.00;;
18716;SDS011;9487;50.892;6.906;2023-08-01T02:51:07;0.60;;;0.60;;
18716;SDS011;9487;50.892;6.906;2023-08-01T02:53:34;1.60;;;1.00;;
18716;SDS011;9487;50.892;6.906;2023-08-01T02:56:02;1.30;;;1.00;;
18716;SDS011;9487;50.892;6.906;2023-08-01T02:58:31;2.03;;;0.90;;
18716;SDS011;9487;50.892;6.906;2023-08-01T03:00:58;1.23;;;0.97;;
18716;SDS011;9487;50.892;6.906;2023-08-01T03:03:26;1.30;;;1.00;;
18716;SDS011;9487;50.892;6.906;2023-08-01T03:05:54;1.20;;;1.10;;
18716;SDS011;9487;50.892;6.906;2023-08-01T03:08:21;0.87;;;0.83;;
18716;SDS011;9487;50.892;6.906;2023-08-01T03:10:51;1.00;;;0.83;;
18716;SDS011;9487;50.892;6.906;2023-08-01T03:13:20;1.20;;;1.10;;
18716;SDS011;9487;50.892;6.906;2023-08-01T03:15:47;2.33;;;1.20;;
18716;SDS011;9487;50.892;6.906;2023-08-01T03:18:14;1.57;;;1.10;;
18716;SDS011;9487;50.892;6.906;2023-08-01T03:20:41;2.53;;;1.27;;
18716;SDS011;9487;50.892;6.906;2023-08-01T03:23:09;2.10;;;1.27;;
18716;SDS011;9487;50.892;6.906;2023-08-01T03:25:36;2.60;;;1.57;;
18716;SDS011;9487;50.892;6.906;2023-08-01T03:28:03;1.60;;;1.33;;
18716;SDS011;9487;50.892;6.906;2023-08-01T03:30:31;4.40;;;1.30;;
18716;SDS011;9487;50.892;6.906;2023-08-01T03:32:58;1.50;;;1.40;;
18716;SDS011;9487;50.892;6.906;2023-08-01T03:35:27;1.60;;;1.50;;
18716;SDS011;9487;50.892;6.906;2023-08-01T03:37:54;2.90;;;1.53;;
18716;SDS011;9487;50.892;6.906;2023-08-01T03:40:23;3.50;;;1.67;;
18716;SDS011;9487;50.892;6.906;2023-08-01T03:42:50;1.73;;;1.63;;
18716;SDS011;9487;50.892;6.906;2023-08-01T03:45:16;2.50;;;1.90;;
18716;SDS011;9487;50.892;6.906;2023-08-01T03:47:43;2.20;;;2.00;;
18716;SDS011;9487;50.892;6.906;2023-08-01T03:50:10;2.50;;;2.00;;
18716;SDS011;9487;50.892;6.906;2023-08-01T03:52:38;2.70;;;2.10;;
18716;SDS011;9487;50.892;6.906;2023-08-01T03:55:06;2.10;;;1.90;;
18716;SDS011;9487;50.892;6.906;2023-08-01T03:57:34;2.40;;;2.20;;
18716;SDS011;9487;50.892;6.906;2023-08-01T04:00:04;3.63;;;2.60;;
18716;SDS011;9487;50.892;6.906;2023-08-01T04:02:38;5.07;;;3.07;;
18716;SDS011;9487;50.892;6.906;2023-08-01T04:05:05;3.73;;;3.10;;
18716;SDS011;9487;50.892;6.906;2023-08-01T04:07:34;4.40;;;3.40;;
18716;SDS011;9487;50.892;6.906;2023-08-01T04:10:01;5.50;;;4.10;;
18716;SDS011;9487;50.892;6.906;2023-08-01T04:12:28;4.77;;;3.63;;
18716;SDS011;9487;50.892;6.906;2023-08-01T04:14:56;5.30;;;3.90;;
18716;SDS011;9487;50.892;6.906;2023-08-01T04:17:23;6.37;;;4.10;;
18716;SDS011;9487;50.892;6.906;2023-08-01T04:19:50;5.20;;;4.30;;
18716;SDS011;9487;50.892;6.906;2023-08-01T04:22:17;4.60;;;3.90;;
18716;SDS011;9487;50.892;6.906;2023-08-01T04:24:44;6.83;;;4.03;;
18716;SDS011;9487;50.892;6.906;2023-08-01T04:27:10;6.10;;;4.00;;
18716;SDS011;9487;50.892;6.906;2023-08-01T04:29:37;4.53;;;3.90;;
18716;SDS011;9487;50.892;6.906;2023-08-01T04:32:06;7.50;;;4.10;;
18716;SDS011;9487;50.892;6.906;2023-08-01T04:34:34;5.33;;;4.83;;
18716;SDS011;9487;50.892;6.906;2023-08-01T04:37:01;4.70;;;4.20;;
18716;SDS011;9487;50.892;6.906;2023-08-01T04:39:27;5.87;;;4.50;;
18716;SDS011;9487;50.892;6.906;2023-08-01T04:41:54;7.23;;;4.80;;
18716;SDS011;9487;50.892;6.906;2023-08-01T04:44:21;6.20;;;4.70;;
18716;SDS011;9487;50.892;6.906;2023-08-01T04:46:49;5.70;;;4.87;;
18716;SDS011;9487;50.892;6.906;2023-08-01T04:49:18;5.90;;;4.33;;
18716;SDS011;9487;50.892;6.906;2023-08-01T04:51:44;7.70;;;5.20;;
18716;SDS011;9487;50.892;6.906;2023-08-01T04:54:11;6.07;;;5.13;;
18716;SDS011;9487;50.892;6.906;2023-08-01T04:56:38;7.30;;;5.27;;
18716;SDS011;9487;50.892;6.906;2023-08-01T04:59:05;6.90;;;4.90;;
18716;SDS011;9487;50.892;6.906;2023-08-01T05:01:32;5.83;;;4.63;;
18716;SDS011;9487;50.892;6.906;2023-08-01T05:03:59;6.60;;;5.07;;
18716;SDS011;9487;50.892;6.906;2023-08-01T05:06:27;6.50;;;5.20;;
18716;SDS011;9487;50.892;6.906;2023-08-01T05:08:54;7.53;;;4.73;;
18716;SDS011;9487;50.892;6.906;2023-08-01T05:11:21;6.10;;;4.33;;
18716;SDS011;9487;50.892;6.906;2023-08-01T05:13:48;7.13;;;4.67;;
18716;SDS011;9487;50.892;6.906;2023-08-01T05:16:15;7.63;;;5.10;;
18716;SDS011;9487;50.892;6.906;2023-08-01T05:18:42;7.37;;;4.93;;
18716;SDS011;9487;50.892;6.906;2023-08-01T05:21:09;7.70;;;4.57;;
18716;SDS011;9487;50.892;6.906;2023-08-01T05:23:38;6.53;;;4.50;;
18716;SDS011;9487;50.892;6.906;2023-08-01T05:26:05;7.97;;;4.50;;
18716;SDS011;9487;50.892;6.906;2023-08-01T05:28:35;10.50;;;4.90;;
18716;SDS011;9487;50.892;6.906;2023-08-01T05:31:01;6.53;;;4.83;;
18716;SDS011;9487;50.892;6.906;2023-08-01T05:33:28;7.87;;;4.57;;
18716;SDS011;9487;50.892;6.906;2023-08-01T05:35:55;7.70;;;4.47;;
18716;SDS011;9487;50.892;6.906;2023-08-01T05:38:22;8.00;;;5.30;;
18716;SDS011;9487;50.892;6.906;2023-08-01T05:40:50;8.17;;;5.10;;
18716;SDS011;9487;50.892;6.906;2023-08-01T05:43:17;7.13;;;4.80;;
18716;SDS011;9487;50.892;6.906;2023-08-01T05:45:44;6.27;;;4.83;;
18716;SDS011;9487;50.892;6.906;2023-08-01T05:48:11;6.80;;;4.40;;
18716;SDS011;9487;50.892;6.906;2023-08-01T05:50:38;6.53;;;4.83;;
18716;SDS011;9487;50.892;6.906;2023-08-01T05:53:05;6.97;;;4.67;;
18716;SDS011;9487;50.892;6.906;2023-08-01T05:55:33;7.03;;;5.17;;
18716;SDS011;9487;50.892;6.906;2023-08-01T05:58:01;7.40;;;4.83;;
18716;SDS011;9487;50.892;6.906;2023-08-01T06:00:28;8.03;;;5.33;;
18716;SDS011;9487;50.892;6.906;2023-08-01T06:02:56;5.60;;;4.43;;
18716;SDS011;9487;50.892;6.906;2023-08-01T06:05:23;5.20;;;4.23;;
18716;SDS011;9487;50.892;6.906;2023-08-01T06:07:50;5.70;;;4.40;;
18716;SDS011;9487;50.892;6.906;2023-08-01T06:10:17;6.30;;;4.40;;
18716;SDS011;9487;50.892;6.906;2023-08-01T06:12:44;5.77;;;4.20;;
18716;SDS011;9487;50.892;6.906;2023-08-01T06:15:13;7.40;;;4.57;;
18716;SDS011;9487;50.892;6.906;2023-08-01T06:17:40;6.57;;;4.73;;
18716;SDS011;9487;50.892;6.906;2023-08-01T06:20:07;6.17;;;4.27;;
18716;SDS011;9487;50.892;6.906;2023-08-01T06:22:35;7.97;;;4.70;;
18716;SDS011;9487;50.892;6.906;2023-08-01T06:25:02;6.87;;;5.00;;
18716;SDS011;9487;50.892;6.906;2023-08-01T06:27:30;8.63;;;5.10;;
18716;SDS011;9487;50.892;6.906;2023-08-01T06:29:56;7.10;;;4.53;;
18716;SDS011;9487;50.892;6.906;2023-08-01T06:32:25;6.47;;;5.00;;
18716;SDS011;9487;50.892;6.906;2023-08-01T06:34:52;6.63;;;4.47;;
18716;SDS011;9487;50.892;6.906;2023-08-01T06:37:19;9.13;;;4.73;;
18716;SDS011;9487;50.892;6.906;2023-08-01T06:39:46;8.40;;;5.03;;
18716;SDS011;9487;50.892;6.906;2023-08-01T06:42:13;7.10;;;4.43;;
18716;SDS011;9487;50.892;6.906;2023-08-01T06:44:41;7.47;;;4.83;;
18716;SDS011;9487;50.892;6.906;2023-08-01T06:47:08;7.40;;;4.87;;
18716;SDS011;9487;50.892;6.906;2023-08-01T06:49:36;7.00;;;5.00;;
18716;SDS011;9487;50.892;6.906;2023-08-01T06:52:03;8.17;;;4.93;;
18716;SDS011;9487;50.892;6.906;2023-08-01T06:54:31;8.63;;;4.67;;
18716;SDS011;9487;50.892;6.906;2023-08-01T06:56:58;6.80;;;4.93;;
18716;SDS011;9487;50.892;6.906;2023-08-01T06:59:25;7.77;;;4.80;;
18716;SDS011;9487;50.892;6.906;2023-08-01T07:01:55;7.47;;;5.10;;
18716;SDS011;9487;50.892;6.906;2023-08-01T07:04:22;6.50;;;4.60;;
18716;SDS011;9487;50.892;6.906;2023-08-01T07:06:51;7.37;;;5.00;;
18716;SDS011;9487;50.892;6.906;2023-08-01T07:09:17;7.60;;;5.20;;
18716;SDS011;9487;50.892;6.906;2023-08-01T07:11:44;7.03;;;4.90;;
18716;SDS011;9487;50.892;6.906;2023-08-01T07:14:11;7.97;;;4.73;;
18716;SDS011;9487;50.892;6.906;2023-08-01T07:16:38;7.23;;;5.03;;
18716;SDS011;9487;50.892;6.906;2023-08-01T07:19:05;5.90;;;5.20;;
18716;SDS011;9487;50.892;6.906;2023-08-01T07:21:32;7.87;;;5.53;;
18716;SDS011;9487;50.892;6.906;2023-08-01T07:24:00;8.97;;;6.00;;
18716;SDS011;9487;50.892;6.906;2023-08-01T07:26:27;7.70;;;5.60;;
18716;SDS011;9487;50.892;6.906;2023-08-01T07:28:54;8.70;;;5.90;;
18716;SDS011;9487;50.892;6.906;2023-08-01T07:31:22;7.50;;;5.50;;
18716;SDS011;9487;50.892;6.906;2023-08-01T07:33:49;7.50;;;6.00;;
18716;SDS011;9487;50.892;6.906;2023-08-01T07:36:16;6.83;;;5.70;;
18716;SDS011;9487;50.892;6.906;2023-08-01T07:38:42;9.17;;;5.40;;
18716;SDS011;9487;50.892;6.906;2023-08-01T07:41:11;5.77;;;4.80;;
18716;SDS011;9487;50.892;6.906;2023-08-01T07:43:37;9.33;;;5.17;;
18716;SDS011;9487;50.892;6.906;2023-08-01T07:46:04;8.07;;;5.57;;
18716;SDS011;9487;50.892;6.906;2023-08-01T07:48:33;5.10;;;4.50;;
18716;SDS011;9487;50.892;6.906;2023-08-01T07:51:00;7.37;;;5.03;;
18716;SDS011;9487;50.892;6.906;2023-08-01T07:53:28;7.77;;;5.30;;
18716;SDS011;9487;50.892;6.906;2023-08-01T07:55:55;8.87;;;4.83;;
18716;SDS011;9487;50.892;6.906;2023-08-01T07:58:24;8.00;;;4.60;;
18716;SDS011;9487;50.892;6.906;2023-08-01T08:00:51;9.43;;;5.23;;
18716;SDS011;9487;50.892;6.906;2023-08-01T08:03:18;6.60;;;4.87;;
18716;SDS011;9487;50.892;6.906;2023-08-01T08:05:47;6.93;;;4.43;;
18716;SDS011;9487;50.892;6.906;2023-08-01T08:08:14;10.03;;;4.67;;
18716;SDS011;9487;50.892;6.906;2023-08-01T08:10:41;7.67;;;4.90;;
18716;SDS011;9487;50.892;6.906;2023-08-01T08:13:07;8.53;;;4.87;;
18716;SDS011;9487;50.892;6.906;2023-08-01T08:15:36;8.50;;;4.80;;
18716;SDS011;9487;50.892;6.906;2023-08-01T08:18:03;7.87;;;4.93;;
18716;SDS011;9487;50.892;6.906;2023-08-01T08:20:30;7.93;;;4.53;;
18716;SDS011;9487;50.892;6.906;2023-08-01T08:22:57;8.10;;;5.20;;
18716;SDS011;9487;50.892;6.906;2023-08-01T08:25:24;7.30;;;5.97;;
18716;SDS011;9487;50.892;6.906;2023-08-01T08:27:51;8.90;;;5.50;;
18716;SDS011;9487;50.892;6.906;2023-08-01T08:30:18;7.07;;;5.10;;
18716;SDS011;9487;50.892;6.906;2023-08-01T08:32:46;11.60;;;5.67;;
18716;SDS011;9487;50.892;6.906;2023-08-01T08:35:13;6.87;;;5.10;;
18716;SDS011;9487;50.892;6.906;2023-08-01T08:37:40;8.17;;;5.23;;
18716;SDS011;9487;50.892;6.906;2023-08-01T08:40:07;7.83;;;5.10;;
18716;SDS011;9487;50.892;6.906;2023-08-01T08:42:35;7.30;;;4.80;;
18716;SDS011;9487;50.892;6.906;2023-08-01T08:45:03;6.17;;;4.53;;
18716;SDS011;9487;50.892;6.906;2023-08-01T08:47:34;5.73;;;4.30;;
18716;SDS011;9487;50.892;6.906;2023-08-01T08:50:06;6.27;;;4.23;;
18716;SDS011;9487;50.892;6.906;2023-08-01T08:52:33;3.63;;;3.17;;
18716;SDS011;9487;50.892;6.906;2023-08-01T08:55:00;6.73;;;3.83;;
18716;SDS011;9487;50.892;6.906;2023-08-01T08:57:29;5.63;;;3.77;;
18716;SDS011;9487;50.892;6.906;2023-08-01T08:59:57;6.50;;;3.50;;
18716;SDS011;9487;50.892;6.906;2023-08-01T09:02:26;4.87;;;3.20;;
18716;SDS011;9487;50.892;6.906;2023-08-01T09:04:53;7.00;;;3.67;;
18716;SDS011;9487;50.892;6.906;2023-08-01T09:07:22;4.50;;;3.43;;
18716;SDS011;9487;50.892;6.906;2023-08-01T09:09:50;5.33;;;3.47;;
18716;SDS011;9487;50.892;6.906;2023-08-01T09:12:17;5.50;;;3.27;;
18716;SDS011;9487;50.892;6.906;2023-08-01T09:14:44;5.47;;;3.43;;
18716;SDS011;9487;50.892;6.906;2023-08-01T09:17:12;4.93;;;3.57;;
18716;SDS011;9487;50.892;6.906;2023-08-01T09:19:41;4.73;;;3.70;;
18716;SDS011;9487;50.892;6.906;2023-08-01T09:22:11;5.63;;;3.20;;
18716;SDS011;9487;50.892;6.906;2023-08-01T09:24:49;5.50;;;3.70;;
18716;SDS011;9487;50.892;6.906;2023-08-01T09:27:17;3.90;;;3.50;;
18716;SDS011;9487;50.892;6.906;2023-08-01T09:29:43;4.93;;;3.60;;
18716;SDS011;9487;50.892;6.906;2023-08-01T09:32:13;6.47;;;3.57;;
18716;SDS011;9487;50.892;6.906;2023-08-01T09:34:41;6.90;;;3.80;;
18716;SDS011;9487;50.892;6.906;2023-08-01T09:37:08;4.10;;;3.47;;
18716;SDS011;9487;50.892;6.906;2023-08-01T09:39:35;4.33;;;3.47;;
18716;SDS011;9487;50.892;6.906;2023-08-01T09:42:03;5.80;;;4.03;;
18716;SDS011;9487;50.892;6.906;2023-08-01T09:44:34;5.53;;;3.37;;
18716;SDS011;9487;50.892;6.906;2023-08-01T09:47:03;6.93;;;3.40;;
18716;SDS011;9487;50.892;6.906;2023-08-01T09:49:31;3.47;;;3.17;;
18716;SDS011;9487;50.892;6.906;2023-08-01T09:51:59;4.53;;;3.60;;
18716;SDS011;9487;50.892;6.906;2023-08-01T09:54:26;8.53;;;3.67;;
18716;SDS011;9487;50.892;6.906;2023-08-01T09:56:54;4.00;;;3.20;;
18716;SDS011;9487;50.892;6.906;2023-08-01T09:59:23;5.50;;;3.20;;
18716;SDS011;9487;50.892;6.906;2023-08-01T10:01:52;4.50;;;3.03;;
18716;SDS011;9487;50.892;6.906;2023-08-01T10:04:21;6.03;;;3.10;;
18716;SDS011;9487;50.892;6.906;2023-08-01T10:06:53;6.13;;;3.47;;
18716;SDS011;9487;50.892;6.906;2023-08-01T10:09:23;5.97;;;4.00;;
18716;SDS011;9487;50.892;6.906;2023-08-01T10:11:51;6.00;;;3.90;;
18716;SDS011;9487;50.892;6.906;2023-08-01T10:14:19;4.53;;;3.20;;
18716;SDS011;9487;50.892;6.906;2023-08-01T10:16:47;3.27;;;2.90;;
18716;SDS011;9487;50.892;6.906;2023-08-01T10:19:15;6.00;;;4.07;;
18716;SDS011;9487;50.892;6.906;2023-08-01T10:21:43;5.83;;;3.50;;
18716;SDS011;9487;50.892;6.906;2023-08-01T10:24:13;5.83;;;3.77;;
18716;SDS011;9487;50.892;6.906;2023-08-01T10:26:43;6.13;;;3.47;;
18716;SDS011;9487;50.892;6.906;2023-08-01T10:29:11;5.20;;;3.57;;
18716;SDS011;9487;50.892;6.906;2023-08-01T10:31:37;6.10;;;3.80;;
18716;SDS011;9487;50.892;6.906;2023-08-01T10:34:13;4.67;;;3.70;;
18716;SDS011;9487;50.892;6.906;2023-08-01T10:36:40;5.03;;;3.33;;
18716;SDS011;9487;50.892;6.906;2023-08-01T10:39:07;5.73;;;3.43;;
18716;SDS011;9487;50.892;6.906;2023-08-01T10:41:35;4.80;;;2.97;;
18716;SDS011;9487;50.892;6.906;2023-08-01T10:44:06;3.20;;;2.83;;
18716;SDS011;9487;50.892;6.906;2023-08-01T10:46:47;4.67;;;3.00;;
18716;SDS011;9487;50.892;6.906;2023-08-01T10:49:17;3.40;;;2.83;;
18716;SDS011;9487;50.892;6.906;2023-08-01T10:51:46;4.23;;;2.70;;
18716;SDS011;9487;50.892;6.906;2023-08-01T10:54:20;3.83;;;2.93;;
18716;SDS011;9487;50.892;6.906;2023-08-01T10:56:49;3.17;;;2.43;;
18716;SDS011;9487;50.892;6.906;2023-08-01T10:59:17;6.50;;;3.10;;
18716;SDS011;9487;50.892;6.906;2023-08-01T11:01:45;3.27;;;2.60;;
18716;SDS011;9487;50.892;6.906;2023-08-01T11:04:14;3.57;;;2.53;;
18716;SDS011;9487;50.892;6.906;2023-08-01T11:06:43;5.90;;;2.90;;
18716;SDS011;9487;50.892;6.906;2023-08-01T11:09:15;4.67;;;2.97;;
18716;SDS011;9487;50.892;6.906;2023-08-01T11:11:43;4.10;;;2.67;;
18716;SDS011;9487;50.892;6.906;2023-08-01T11:14:11;3.57;;;2.30;;
18716;SDS011;9487;50.892;6.906;2023-08-01T11:16:37;4.60;;;2.40;;
18716;SDS011;9487;50.892;6.906;2023-08-01T11:19:04;5.30;;;2.70;;
18716;SDS011;9487;50.892;6.906;2023-08-01T11:21:44;5.37;;;2.73;;
18716;SDS011;9487;50.892;6.906;2023-08-01T11:24:11;4.47;;;2.37;;
18716;SDS011;9487;50.892;6.906;2023-08-01T11:26:40;5.03;;;2.20;;
18716;SDS011;9487;50.892;6.906;2023-08-01T11:29:08;2.97;;;2.23;;
18716;SDS011;9487;50.892;6.906;2023-08-01T11:31:37;4.40;;;2.40;;
18716;SDS011;9487;50.892;6.906;2023-08-01T11:34:04;3.33;;;2.07;;
18716;SDS011;9487;50.892;6.906;2023-08-01T11:36:33;5.70;;;2.60;;
18716;SDS011;9487;50.892;6.906;2023-08-01T11:39:02;4.03;;;2.43;;
18716;SDS011;9487;50.892;6.906;2023-08-01T11:41:29;3.87;;;2.30;;
18716;SDS011;9487;50.892;6.906;2023-08-01T11:44:00;3.03;;;2.10;;
18716;SDS011;9487;50.892;6.906;2023-08-01T11:46:30;3.00;;;2.00;;
18716;SDS011;9487;50.892;6.906;2023-08-01T11:48:58;2.30;;;2.10;;
18716;SDS011;9487;50.892;6.906;2023-08-01T11:51:26;3.83;;;2.33;;
18716;SDS011;9487;50.892;6.906;2023-08-01T11:53:57;3.37;;;2.53;;
18716;SDS011;9487;50.892;6.906;2023-08-01T11:56:28;3.40;;;2.60;;
18716;SDS011;9487;50.892;6.906;2023-08-01T11:58:55;4.00;;;2.47;;
18716;SDS011;9487;50.892;6.906;2023-08-01T12:01:21;3.87;;;2.70;;
18716;SDS011;9487;50.892;6.906;2023-08-01T12:03:49;4.90;;;2.67;;
18716;SDS011;9487;50.892;6.906;2023-08-01T12:06:19;3.13;;;2.10;;
18716;SDS011;9487;50.892;6.906;2023-08-01T12:08:48;4.93;;;2.60;;
18716;SDS011;9487;50.892;6.906;2023-08-01T12:11:17;3.13;;;2.00;;
18716;SDS011;9487;50.892;6.906;2023-08-01T12:13:46;4.40;;;2.33;;
18716;SDS011;9487;50.892;6.906;2023-08-01T12:16:14;4.47;;;2.50;;
18716;SDS011;9487;50.892;6.906;2023-08-01T12:18:45;4.00;;;2.30;;
18716;SDS011;9487;50.892;6.906;2023-08-01T12:21:12;4.80;;;2.50;;
18716;SDS011;9487;50.892;6.906;2023-08-01T12:23:40;3.57;;;2.20;;
18716;SDS011;9487;50.892;6.906;2023-08-01T12:26:06;3.70;;;2.30;;
18716;SDS011;9487;50.892;6.906;2023-08-01T12:28:33;4.57;;;2.60;;
18716;SDS011;9487;50.892;6.906;2023-08-01T12:31:01;3.53;;;2.50;;
18716;SDS011;9487;50.892;6.906;2023-08-01T12:33:28;4.07;;;2.37;;
18716;SDS011;9487;50.892;6.906;2023-08-01T12:35:55;4.53;;;2.90;;
18716;SDS011;9487;50.892;6.906;2023-08-01T12:38:22;4.53;;;2.93;;
18716;SDS011;9487;50.892;6.906;2023-08-01T12:40:49;5.67;;;3.10;;
18716;SDS011;9487;50.892;6.906;2023-08-01T12:43:16;4.33;;;2.80;;
18716;SDS011;9487;50.892;6.906;2023-08-01T12:45:43;4.27;;;2.77;;
18716;SDS011;9487;50.892;6.906;2023-08-01T12:48:11;5.53;;;2.63;;
18716;SDS011;9487;50.892;6.906;2023-08-01T12:50:42;4.27;;;2.70;;
18716;SDS011;9487;50.892;6.906;2023-08-01T12:53:11;3.90;;;2.80;;
18716;SDS011;9487;50.892;6.906;2023-08-01T12:55:42;4.13;;;2.50;;
18716;SDS011;9487;50.892;6.906;2023-08-01T12:58:09;4.67;;;2.63;;
18716;SDS011;9487;50.892;6.906;2023-08-01T13:00:36;6.77;;;3.17;;
18716;SDS011;9487;50.892;6.906;2023-08-01T13:03:03;4.03;;;2.90;;
18716;SDS011;9487;50.892;6.906;2023-08-01T13:05:34;4.33;;;2.80;;
18716;SDS011;9487;50.892;6.906;2023-08-01T13:08:02;5.40;;;2.77;;
18716;SDS011;9487;50.892;6.906;2023-08-01T13:10:31;4.20;;;2.50;;
18716;SDS011;9487;50.892;6.906;2023-08-01T13:12:58;3.40;;;1.93;;
18716;SDS011;9487;50.892;6.906;2023-08-01T13:15:26;2.53;;;2.00;;
18716;SDS011;9487;50.892;6.906;2023-08-01T13:17:53;3.53;;;2.17;;
18716;SDS011;9487;50.892;6.906;2023-08-01T13:20:21;3.60;;;2.07;;
18716;SDS011;9487;50.892;6.906;2023-08-01T13:22:50;3.17;;;1.93;;
18716;SDS011;9487;50.892;6.906;2023-08-01T13:25:17;2.80;;;2.07;;
18716;SDS011;9487;50.892;6.906;2023-08-01T13:27:45;4.30;;;2.17;;
18716;SDS011;9487;50.892;6.906;2023-08-01T13:30:11;4.07;;;1.87;;
18716;SDS011;9487;50.892;6.906;2023-08-01T13:32:39;3.73;;;2.13;;
18716;SDS011;9487;50.892;6.906;2023-08-01T13:35:06;3.67;;;2.10;;
18716;SDS011;9487;50.892;6.906;2023-08-01T13:37:33;2.80;;;2.20;;
18716;SDS011;9487;50.892;6.906;2023-08-01T13:40:02;3.63;;;1.93;;
18716;SDS011;9487;50.892;6.906;2023-08-01T13:42:30;4.00;;;2.00;;
18716;SDS011;9487;50.892;6.906;2023-08-01T13:44:58;4.07;;;1.90;;
18716;SDS011;9487;50.892;6.906;2023-08-01T13:47:27;2.93;;;1.93;;
18716;SDS011;9487;50.892;6.906;2023-08-01T13:49:54;4.17;;;1.90;;
18716;SDS011;9487;50.892;6.906;2023-08-01T13:52:21;3.00;;;2.00;;
18716;SDS011;9487;50.892;6.906;2023-08-01T13:54:48;3.27;;;2.10;;
18716;SDS011;9487;50.892;6.906;2023-08-01T13:57:17;3.00;;;2.20;;
18716;SDS011;9487;50.892;6.906;2023-08-01T13:59:44;4.07;;;2.30;;
18716;SDS011;9487;50.892;6.906;2023-08-01T14:02:11;3.20;;;2.10;;
18716;SDS011;9487;50.892;6.906;2023-08-01T14:04:38;6.43;;;2.10;;
18716;SDS011;9487;50.892;6.906;2023-08-01T14:07:05;3.80;;;2.40;;
18716;SDS011;9487;50.892;6.906;2023-08-01T14:09:32;4.60;;;2.40;;
18716;SDS011;9487;50.892;6.906;2023-08-01T14:12:01;4.17;;;2.73;;
18716;SDS011;9487;50.892;6.906;2023-08-01T14:14:29;3.40;;;2.20;;
18716;SDS011;9487;50.892;6.906;2023-08-01T14:16:56;3.60;;;2.60;;
18716;SDS011;9487;50.892;6.906;2023-08-01T14:19:23;3.63;;;2.30;;
18716;SDS011;9487;50.892;6.906;2023-08-01T14:21:54;2.97;;;2.50;;
18716;SDS011;9487;50.892;6.906;2023-08-01T14:24:21;4.27;;;2.33;;
18716;SDS011;9487;50.892;6.906;2023-08-01T14:26:48;2.57;;;2.20;;
18716;SDS011;9487;50.892;6.906;2023-08-01T14:29:16;4.13;;;2.60;;
18716;SDS011;9487;50.892;6.906;2023-08-01T14:31:47;4.00;;;2.73;;
18716;SDS011;9487;50.892;6.906;2023-08-01T14:34:14;3.57;;;2.60;;
18716;SDS011;9487;50.892;6.906;2023-08-01T14:36:42;3.23;;;2.33;;
18716;SDS011;9487;50.892;6.906;2023-08-01T14:39:09;3.00;;;2.43;;
18716;SDS011;9487;50.892;6.906;2023-08-01T14:41:36;4.33;;;2.40;;
18716;SDS011;9487;50.892;6.906;2023-08-01T14:44:03;5.63;;;2.70;;
18716;SDS011;9487;50.892;6.906;2023-08-01T14:46:30;3.93;;;2.40;;
18716;SDS011;9487;50.892;6.906;2023-08-01T14:48:59;4.07;;;2.37;;
18716;SDS011;9487;50.892;6.906;2023-08-01T14:51:25;3.47;;;2.10;;
18716;SDS011;9487;50.892;6.906;2023-08-01T14:53:52;3.60;;;2.20;;
18716;SDS011;9487;50.892;6.906;2023-08-01T14:56:19;6.70;;;2.50;;
18716;SDS011;9487;50.892;6.906;2023-08-01T14:58:46;3.40;;;2.40;;
18716;SDS011;9487;50.892;6.906;2023-08-01T15:01:13;2.97;;;2.30;;
18716;SDS011;9487;50.892;6.906;2023-08-01T15:03:40;4.10;;;2.23;;